createdAt,value
2022-10-07T00:00:19.236Z,6.68
2022-10-07T00:00:56.788Z,6.50
2022-10-07T00:01:32.254Z,6.68
2022-10-07T00:02:07.723Z,6.13
2022-10-07T00:02:41.981Z,7.43
2022-10-07T00:03:17.949Z,6.80
2022-10-07T00:03:52.203Z,6.80
2022-10-07T00:04:28.444Z,6.90
2022-10-07T00:05:04.316Z,6.72
2022-10-07T00:05:37.911Z,6.07
2022-10-07T00:06:14.011Z,7.03
2022-10-07T00:06:48.213Z,6.95
2022-10-07T00:07:22.872Z,6.63
2022-10-07T00:07:56.778Z,7.25
2022-10-07T00:08:32.591Z,7.25
2022-10-07T00:09:08.785Z,7.10
2022-10-07T00:09:44.066Z,7.28
2022-10-07T00:10:19.278Z,6.53
2022-10-07T00:10:54.559Z,6.53
2022-10-07T00:11:29.155Z,5.88
2022-10-07T00:12:04.391Z,6.78
2022-10-07T00:12:37.764Z,6.53
2022-10-07T00:13:13.130Z,6.10
2022-10-07T00:13:49.793Z,6.00
2022-10-07T00:14:25.782Z,6.22
2022-10-07T00:15:00.586Z,6.20
2022-10-07T00:15:36.359Z,6.82
2022-10-07T00:16:11.308Z,6.30
2022-10-07T00:16:46.851Z,6.30
2022-10-07T00:17:22.657Z,6.50
2022-10-07T00:17:56.910Z,6.00
2022-10-07T00:18:31.621Z,6.30
2022-10-07T00:19:07.802Z,6.22
2022-10-07T00:19:42.416Z,6.32
2022-10-07T00:20:16.617Z,6.40
2022-10-07T00:20:52.266Z,6.30
2022-10-07T00:21:26.426Z,5.90
2022-10-07T00:22:02.183Z,6.20
2022-10-07T00:22:36.580Z,6.28
2022-10-07T00:23:10.844Z,6.32
2022-10-07T00:23:47.243Z,5.72
2022-10-07T00:24:22.577Z,6.25
2022-10-07T00:24:58.118Z,6.00
2022-10-07T00:25:33.548Z,6.40
2022-10-07T00:26:08.783Z,6.38
2022-10-07T00:26:44.462Z,5.75
2022-10-07T00:27:19.618Z,6.25
2022-10-07T00:27:53.912Z,6.00
2022-10-07T00:28:28.611Z,5.80
2022-10-07T00:29:03.290Z,6.00
2022-10-07T00:29:39.144Z,6.25
2022-10-07T00:30:15.153Z,6.05
2022-10-07T00:30:50.126Z,6.40
2022-10-07T00:31:24.917Z,6.53
2022-10-07T00:32:00.051Z,6.40
2022-10-07T00:32:34.774Z,6.40
2022-10-07T00:33:08.110Z,6.40
2022-10-07T00:33:41.926Z,6.20
2022-10-07T00:34:16.296Z,6.35
2022-10-07T00:34:51.832Z,5.97
2022-10-07T00:35:25.758Z,5.93
2022-10-07T00:36:01.024Z,6.22
2022-10-07T00:36:36.938Z,6.70
2022-10-07T00:37:11.406Z,6.68
2022-10-07T00:37:46.560Z,6.18
2022-10-07T00:38:20.566Z,6.28
2022-10-07T00:38:56.714Z,5.97
2022-10-07T00:39:31.722Z,5.93
2022-10-07T00:40:08.322Z,6.15
2022-10-07T00:40:43.573Z,6.55
2022-10-07T00:41:18.901Z,5.25
2022-10-07T00:41:53.198Z,5.95
2022-10-07T00:42:31.316Z,5.80
2022-10-07T00:43:20.558Z,6.22
2022-10-07T00:43:56.096Z,5.88
2022-10-07T00:44:38.868Z,5.70
2022-10-07T00:45:34.724Z,6.05
2022-10-07T00:46:14.360Z,5.90
2022-10-07T00:46:49.777Z,6.22
2022-10-07T00:47:28.144Z,5.78
2022-10-07T00:48:02.721Z,6.28
2022-10-07T00:48:37.873Z,6.43
2022-10-07T00:49:15.558Z,5.90
2022-10-07T00:49:51.245Z,5.43
2022-10-07T00:50:27.567Z,6.13
2022-10-07T00:51:02.813Z,5.72
2022-10-07T00:51:37.613Z,6.13
2022-10-07T00:52:12.250Z,5.85
2022-10-07T00:52:50.118Z,5.80
2022-10-07T00:53:24.173Z,5.28
2022-10-07T00:53:58.084Z,6.15
2022-10-07T00:54:34.535Z,5.65
2022-10-07T00:55:10.566Z,6.28
2022-10-07T00:55:45.659Z,5.70
2022-10-07T00:56:20.749Z,6.13
2022-10-07T00:56:55.555Z,5.90
2022-10-07T00:57:32.143Z,5.53
2022-10-07T00:58:09.491Z,5.38
2022-10-07T00:58:45.565Z,4.95
2022-10-07T00:59:20.792Z,5.25
2022-10-07T00:59:56.323Z,4.93
2022-10-07T01:00:33.771Z,5.25
2022-10-07T01:01:12.789Z,5.32
2022-10-07T01:01:49.040Z,5.07
2022-10-07T01:02:22.766Z,5.53
2022-10-07T01:02:58.111Z,5.13
2022-10-07T01:03:31.855Z,5.63
2022-10-07T01:04:08.304Z,5.78
2022-10-07T01:04:42.944Z,5.07
2022-10-07T01:05:18.425Z,5.10
2022-10-07T01:05:52.521Z,5.65
2022-10-07T01:06:26.262Z,5.53
2022-10-07T01:07:01.817Z,5.80
2022-10-07T01:07:35.941Z,5.40
2022-10-07T01:08:09.671Z,5.43
2022-10-07T01:08:46.090Z,5.80
2022-10-07T01:09:21.552Z,5.13
2022-10-07T01:09:59.546Z,5.55
2022-10-07T01:10:38.155Z,5.43
2022-10-07T01:11:16.644Z,5.45
2022-10-07T01:11:55.615Z,5.15
2022-10-07T01:12:39.681Z,6.03
2022-10-07T01:13:19.464Z,5.45
2022-10-07T01:13:58.674Z,5.22
2022-10-07T01:14:59.193Z,5.88
2022-10-07T01:15:34.593Z,5.43
2022-10-07T01:16:13.894Z,5.30
2022-10-07T01:16:52.503Z,5.38
2022-10-07T01:17:29.804Z,5.03
2022-10-07T01:18:08.302Z,5.20
2022-10-07T01:18:46.711Z,5.50
2022-10-07T01:19:26.095Z,5.43
2022-10-07T01:20:19.097Z,5.80
2022-10-07T01:20:54.795Z,5.20
2022-10-07T01:21:35.486Z,5.18
2022-10-07T01:22:17.127Z,5.05
2022-10-07T01:22:56.573Z,4.93
2022-10-07T01:23:45.344Z,5.30
2022-10-07T01:24:26.008Z,4.82
2022-10-07T01:25:13.226Z,5.00
2022-10-07T01:25:55.255Z,4.93
2022-10-07T01:26:43.251Z,4.88
2022-10-07T01:27:19.204Z,4.95
2022-10-07T01:27:56.949Z,5.45
2022-10-07T01:28:34.105Z,5.05
2022-10-07T01:29:11.578Z,4.43
2022-10-07T01:29:56.628Z,4.82
2022-10-07T01:30:33.224Z,5.13
2022-10-07T01:31:09.834Z,5.28
2022-10-07T01:31:46.860Z,5.05
2022-10-07T01:32:23.250Z,5.38
2022-10-07T01:33:01.602Z,5.10
2022-10-07T01:33:35.738Z,4.78
2022-10-07T01:34:11.802Z,5.20
2022-10-07T01:34:46.971Z,4.72
2022-10-07T01:35:25.549Z,5.15
2022-10-07T01:36:00.752Z,4.88
2022-10-07T01:36:37.969Z,4.72
2022-10-07T01:37:13.403Z,4.95
2022-10-07T01:37:49.574Z,4.95
2022-10-07T01:38:27.144Z,5.28
2022-10-07T01:39:05.067Z,5.22
2022-10-07T01:39:41.519Z,4.97
2022-10-07T01:40:17.781Z,4.80
2022-10-07T01:40:54.559Z,5.15
2022-10-07T01:41:29.566Z,4.90
2022-10-07T01:42:06.209Z,5.03
2022-10-07T01:42:41.153Z,5.10
2022-10-07T01:43:16.992Z,4.80
2022-10-07T01:43:53.349Z,4.97
2022-10-07T01:44:29.267Z,5.10
2022-10-07T01:45:05.166Z,5.20
2022-10-07T01:45:42.249Z,5.35
2022-10-07T01:46:18.512Z,5.32
2022-10-07T01:46:54.296Z,5.20
2022-10-07T01:47:29.050Z,5.13
2022-10-07T01:48:03.156Z,5.15
2022-10-07T01:48:39.716Z,5.32
2022-10-07T01:49:13.409Z,5.60
2022-10-07T01:49:52.936Z,5.18
2022-10-07T01:50:28.619Z,5.35
2022-10-07T01:51:04.495Z,5.50
2022-10-07T01:51:40.523Z,5.38
2022-10-07T01:52:20.343Z,5.07
2022-10-07T01:53:02.147Z,4.97
2022-10-07T01:53:45.029Z,5.20
2022-10-07T01:54:27.285Z,4.93
2022-10-07T01:55:14.758Z,5.18
2022-10-07T01:55:54.648Z,4.90
2022-10-07T01:56:55.116Z,5.22
2022-10-07T01:57:38.510Z,4.60
2022-10-07T01:58:19.295Z,5.38
2022-10-07T01:59:04.090Z,5.43
2022-10-07T01:59:49.523Z,5.10
2022-10-07T02:00:24.968Z,4.95
2022-10-07T02:01:07.047Z,5.18
2022-10-07T02:01:44.048Z,5.05
2022-10-07T02:02:25.726Z,5.43
2022-10-07T02:03:10.284Z,4.82
2022-10-07T02:03:57.219Z,4.63
2022-10-07T02:04:37.917Z,4.97
2022-10-07T02:05:15.805Z,4.93
2022-10-07T02:05:55.047Z,5.22
2022-10-07T02:06:35.045Z,5.13
2022-10-07T02:07:16.508Z,5.25
2022-10-07T02:07:57.594Z,5.15
2022-10-07T02:08:33.904Z,5.63
2022-10-07T02:09:12.389Z,4.93
2022-10-07T02:09:48.787Z,4.80
2022-10-07T02:10:28.311Z,5.38
2022-10-07T02:11:14.722Z,5.53
2022-10-07T02:11:56.500Z,5.00
2022-10-07T02:12:37.796Z,5.20
2022-10-07T02:13:14.118Z,5.35
2022-10-07T02:13:59.125Z,5.20
2022-10-07T02:14:59.338Z,5.18
2022-10-07T02:15:35.065Z,5.22
2022-10-07T02:16:11.904Z,4.90
2022-10-07T02:16:48.970Z,5.25
2022-10-07T02:17:23.463Z,5.05
2022-10-07T02:17:59.196Z,4.65
2022-10-07T02:18:35.905Z,4.78
2022-10-07T02:19:11.344Z,4.78
2022-10-07T02:19:48.313Z,5.28
2022-10-07T02:20:25.473Z,5.15
2022-10-07T02:20:59.137Z,5.50
2022-10-07T02:21:36.610Z,5.60
2022-10-07T02:22:10.897Z,5.15
2022-10-07T02:22:45.869Z,5.00
2022-10-07T02:23:22.356Z,5.32
2022-10-07T02:23:57.079Z,5.38
2022-10-07T02:24:32.809Z,5.35
2022-10-07T02:25:08.796Z,5.70
2022-10-07T02:25:45.931Z,5.32
2022-10-07T02:26:22.795Z,5.47
2022-10-07T02:26:59.589Z,5.50
2022-10-07T02:27:36.341Z,5.03
2022-10-07T02:28:11.208Z,5.63
2022-10-07T02:28:48.005Z,5.15
2022-10-07T02:29:25.667Z,5.18
2022-10-07T02:30:39.596Z,5.65
2022-10-07T02:31:18.432Z,4.90
2022-10-07T02:31:54.590Z,5.72
2022-10-07T02:32:30.318Z,5.60
2022-10-07T02:33:05.882Z,4.88
2022-10-07T02:33:41.725Z,5.43
2022-10-07T02:34:20.093Z,5.68
2022-10-07T02:34:56.543Z,5.13
2022-10-07T02:35:33.106Z,5.50
2022-10-07T02:36:11.440Z,5.22
2022-10-07T02:36:47.963Z,5.40
2022-10-07T02:37:24.879Z,5.53
2022-10-07T02:38:02.197Z,5.10
2022-10-07T02:38:37.048Z,5.50
2022-10-07T02:39:12.088Z,5.32
2022-10-07T02:39:47.181Z,5.07
2022-10-07T02:40:21.784Z,5.10
2022-10-07T02:41:00.713Z,5.15
2022-10-07T02:41:36.979Z,5.10
2022-10-07T02:42:25.981Z,5.00
2022-10-07T02:43:04.662Z,4.60
2022-10-07T02:43:42.636Z,5.28
2022-10-07T02:44:20.061Z,4.97
2022-10-07T02:44:56.314Z,5.22
2022-10-07T02:45:33.897Z,4.88
2022-10-07T02:46:11.782Z,4.47
2022-10-07T02:46:48.375Z,5.32
2022-10-07T02:47:29.711Z,5.43
2022-10-07T02:48:05.451Z,4.70
2022-10-07T02:48:42.901Z,5.22
2022-10-07T02:49:20.442Z,4.45
2022-10-07T02:49:55.796Z,5.10
2022-10-07T02:50:33.783Z,5.20
2022-10-07T02:51:11.237Z,4.93
2022-10-07T02:51:49.028Z,4.82
2022-10-07T02:52:25.930Z,5.05
2022-10-07T02:53:02.325Z,5.22
2022-10-07T02:53:37.946Z,4.90
2022-10-07T02:54:14.415Z,5.53
2022-10-07T02:54:49.827Z,5.03
2022-10-07T02:55:25.742Z,5.10
2022-10-07T02:56:02.896Z,5.20
2022-10-07T02:56:39.021Z,4.65
2022-10-07T02:57:14.439Z,6.05
2022-10-07T02:57:51.342Z,13.77
2022-10-07T02:58:27.547Z,6.63
2022-10-07T02:59:03.023Z,5.00
2022-10-07T02:59:39.281Z,4.22
2022-10-07T03:00:17.060Z,4.38
2022-10-07T03:01:01.600Z,4.50
2022-10-07T03:01:38.113Z,4.50
2022-10-07T03:02:14.332Z,4.68
2022-10-07T03:02:53.429Z,4.60
2022-10-07T03:03:30.539Z,4.95
2022-10-07T03:04:08.701Z,4.18
2022-10-07T03:04:43.430Z,4.47
2022-10-07T03:05:19.904Z,4.18
2022-10-07T03:05:56.042Z,4.70
2022-10-07T03:06:32.512Z,4.45
2022-10-07T03:07:08.545Z,4.53
2022-10-07T03:07:44.627Z,4.40
2022-10-07T03:08:20.178Z,4.50
2022-10-07T03:08:55.697Z,4.45
2022-10-07T03:09:31.208Z,4.50
2022-10-07T03:10:09.147Z,4.10
2022-10-07T03:10:44.280Z,4.05
2022-10-07T03:11:21.597Z,4.30
2022-10-07T03:11:56.010Z,4.32
2022-10-07T03:12:30.197Z,4.15
2022-10-07T03:13:06.537Z,4.35
2022-10-07T03:13:44.571Z,3.72
2022-10-07T03:14:18.274Z,4.68
2022-10-07T03:14:52.329Z,4.43
2022-10-07T03:15:29.256Z,3.88
2022-10-07T03:16:05.878Z,3.72
2022-10-07T03:16:41.459Z,4.35
2022-10-07T03:17:16.442Z,4.47
2022-10-07T03:17:51.842Z,46.92
2022-10-07T03:18:29.952Z,20.80
2022-10-07T03:19:23.380Z,5.53
2022-10-07T03:20:00.580Z,13.43
2022-10-07T03:20:34.911Z,5.18
2022-10-07T03:21:09.975Z,9.07
2022-10-07T03:21:44.232Z,5.35
2022-10-07T03:22:21.909Z,4.50
2022-10-07T03:22:56.017Z,4.60
2022-10-07T03:23:31.397Z,4.15
2022-10-07T03:24:05.322Z,5.05
2022-10-07T03:24:46.994Z,4.00
2022-10-07T03:25:20.724Z,5.05
2022-10-07T03:25:56.968Z,4.55
2022-10-07T03:26:32.174Z,4.30
2022-10-07T03:27:07.965Z,4.35
2022-10-07T03:27:47.115Z,4.15
2022-10-07T03:28:22.318Z,4.97
2022-10-07T03:28:58.539Z,4.38
2022-10-07T03:29:35.844Z,4.25
2022-10-07T03:30:11.765Z,4.28
2022-10-07T03:30:47.971Z,4.00
2022-10-07T03:31:23.281Z,4.25
2022-10-07T03:32:02.005Z,5.43
2022-10-07T03:32:36.890Z,18.67
2022-10-07T03:33:12.402Z,21.30
2022-10-07T03:33:46.837Z,76.22
2022-10-07T03:34:23.919Z,42.35
2022-10-07T03:34:58.871Z,22.83
2022-10-07T03:35:32.466Z,6.82
2022-10-07T03:36:09.015Z,5.20
2022-10-07T03:36:47.099Z,5.20
2022-10-07T03:37:23.329Z,4.93
2022-10-07T03:37:56.747Z,4.43
2022-10-07T03:38:31.691Z,4.32
2022-10-07T03:39:05.850Z,4.40
2022-10-07T03:39:40.337Z,4.22
2022-10-07T03:40:19.489Z,4.25
2022-10-07T03:40:53.701Z,4.70
2022-10-07T03:41:28.049Z,4.20
2022-10-07T03:42:09.008Z,4.55
2022-10-07T03:42:47.277Z,3.92
2022-10-07T03:43:22.307Z,4.10
2022-10-07T03:44:01.184Z,3.70
2022-10-07T03:44:37.671Z,3.97
2022-10-07T03:45:13.535Z,4.10
2022-10-07T03:45:48.975Z,4.15
2022-10-07T03:46:23.193Z,4.32
2022-10-07T03:47:07.615Z,4.28
2022-10-07T03:47:46.701Z,3.90
2022-10-07T03:48:21.388Z,4.10
2022-10-07T03:48:56.216Z,4.07
2022-10-07T03:49:31.159Z,3.95
2022-10-07T03:50:04.903Z,3.85
2022-10-07T03:50:39.841Z,3.97
2022-10-07T03:51:13.612Z,3.90
2022-10-07T03:51:48.351Z,4.93
2022-10-07T03:52:23.334Z,6.47
2022-10-07T03:52:59.143Z,6.32
2022-10-07T03:53:34.099Z,3.78
2022-10-07T03:54:10.216Z,4.50
2022-10-07T03:54:45.594Z,3.65
2022-10-07T03:55:20.317Z,4.28
2022-10-07T03:55:55.815Z,4.70
2022-10-07T03:56:29.985Z,4.22
2022-10-07T03:57:23.637Z,4.10
2022-10-07T03:57:59.914Z,5.38
2022-10-07T03:58:35.899Z,6.88
2022-10-07T03:59:13.415Z,4.57
2022-10-07T03:59:47.872Z,3.58
2022-10-07T04:00:24.555Z,3.70
2022-10-07T04:01:05.469Z,3.80
2022-10-07T04:01:41.018Z,3.95
2022-10-07T04:02:15.359Z,3.70
2022-10-07T04:02:49.157Z,3.60
2022-10-07T04:03:26.291Z,3.40
2022-10-07T04:04:01.149Z,3.58
2022-10-07T04:04:39.988Z,3.50
2022-10-07T04:05:16.589Z,3.83
2022-10-07T04:05:58.852Z,3.67
2022-10-07T04:06:35.895Z,3.85
2022-10-07T04:07:13.104Z,3.42
2022-10-07T04:07:47.794Z,3.33
2022-10-07T04:08:23.288Z,3.70
2022-10-07T04:08:57.480Z,3.80
2022-10-07T04:09:32.060Z,3.78
2022-10-07T04:10:08.560Z,3.53
2022-10-07T04:10:42.201Z,3.38
2022-10-07T04:11:16.659Z,3.60
2022-10-07T04:11:51.913Z,3.95
2022-10-07T04:12:26.546Z,3.20
2022-10-07T04:13:00.109Z,3.50
2022-10-07T04:13:34.654Z,3.50
2022-10-07T04:14:10.937Z,3.53
2022-10-07T04:14:48.676Z,3.53
2022-10-07T04:15:24.393Z,3.60
2022-10-07T04:15:58.801Z,3.47
2022-10-07T04:16:37.936Z,3.13
2022-10-07T04:17:16.075Z,3.30
2022-10-07T04:17:51.316Z,3.50
2022-10-07T04:18:25.971Z,4.35
2022-10-07T04:19:01.363Z,4.28
2022-10-07T04:19:37.798Z,5.13
2022-10-07T04:20:13.039Z,4.00
2022-10-07T04:20:47.809Z,4.88
2022-10-07T04:21:22.743Z,4.03
2022-10-07T04:21:57.611Z,3.95
2022-10-07T04:22:34.228Z,5.40
2022-10-07T04:23:08.476Z,3.58
2022-10-07T04:23:43.499Z,3.90
2022-10-07T04:24:19.081Z,3.03
2022-10-07T04:25:07.495Z,3.25
2022-10-07T04:25:44.603Z,3.72
2022-10-07T04:26:26.694Z,5.57
2022-10-07T04:27:00.584Z,4.93
2022-10-07T04:27:51.031Z,4.00
2022-10-07T04:28:28.362Z,3.38
2022-10-07T04:29:09.632Z,3.67
2022-10-07T04:29:44.212Z,4.32
2022-10-07T04:30:21.736Z,6.32
2022-10-07T04:30:55.347Z,3.47
2022-10-07T04:31:39.050Z,3.28
2022-10-07T04:32:13.451Z,3.83
2022-10-07T04:32:46.303Z,3.35
2022-10-07T04:33:21.458Z,2.92
2022-10-07T04:33:56.682Z,3.55
2022-10-07T04:34:36.035Z,3.80
2022-10-07T04:35:11.775Z,3.35
2022-10-07T04:35:46.354Z,3.30
2022-10-07T04:36:22.705Z,3.20
2022-10-07T04:37:10.032Z,3.63
2022-10-07T04:37:44.834Z,3.40
2022-10-07T04:38:22.398Z,3.58
2022-10-07T04:38:58.951Z,3.42
2022-10-07T04:39:59.649Z,3.60
2022-10-07T04:40:33.100Z,2.97
2022-10-07T04:41:08.099Z,3.38
2022-10-07T04:41:46.547Z,3.15
2022-10-07T04:42:44.761Z,3.45
2022-10-07T04:43:19.838Z,3.08
2022-10-07T04:43:58.271Z,3.70
2022-10-07T04:44:37.712Z,3.15
2022-10-07T04:45:14.251Z,3.40
2022-10-07T04:45:52.238Z,3.45
2022-10-07T04:46:28.793Z,3.50
2022-10-07T04:47:18.005Z,3.05
2022-10-07T04:47:53.487Z,3.05
2022-10-07T04:48:27.941Z,3.05
2022-10-07T04:49:03.032Z,3.20
2022-10-07T04:49:38.096Z,2.83
2022-10-07T04:50:16.206Z,3.10
2022-10-07T04:50:58.001Z,6.70
2022-10-07T04:51:32.079Z,5.13
2022-10-07T04:52:06.900Z,3.90
2022-10-07T04:52:47.091Z,3.38
2022-10-07T04:53:20.965Z,2.80
2022-10-07T04:53:58.652Z,3.10
2022-10-07T04:54:40.154Z,2.88
2022-10-07T04:55:15.329Z,2.80
2022-10-07T04:55:52.765Z,2.60
2022-10-07T04:56:28.471Z,2.72
2022-10-07T04:57:02.839Z,2.70
2022-10-07T04:57:37.827Z,3.05
2022-10-07T04:58:12.517Z,3.00
2022-10-07T04:58:47.602Z,2.72
2022-10-07T04:59:26.986Z,3.10
2022-10-07T05:00:03.282Z,2.75
2022-10-07T05:00:45.785Z,2.45
2022-10-07T05:01:21.478Z,2.78
2022-10-07T05:01:56.299Z,2.65
2022-10-07T05:02:32.301Z,2.90
2022-10-07T05:03:06.535Z,2.97
2022-10-07T05:03:42.100Z,3.10
2022-10-07T05:04:17.956Z,3.25
2022-10-07T05:04:52.578Z,2.97
2022-10-07T05:05:27.939Z,2.90
2022-10-07T05:06:05.757Z,2.97
2022-10-07T05:06:43.533Z,2.83
2022-10-07T05:07:19.064Z,2.60
2022-10-07T05:07:52.318Z,2.83
2022-10-07T05:08:28.497Z,2.58
2022-10-07T05:09:03.423Z,2.70
2022-10-07T05:09:42.230Z,2.85
2022-10-07T05:10:17.735Z,2.58
2022-10-07T05:10:56.105Z,2.75
2022-10-07T05:11:32.185Z,2.70
2022-10-07T05:12:13.500Z,2.38
2022-10-07T05:12:46.575Z,2.78
2022-10-07T05:13:25.783Z,2.40
2022-10-07T05:14:02.842Z,2.78
2022-10-07T05:14:38.484Z,2.90
2022-10-07T05:15:13.442Z,2.80
2022-10-07T05:15:50.933Z,2.65
2022-10-07T05:16:27.653Z,3.25
2022-10-07T05:17:01.790Z,2.80
2022-10-07T05:17:43.140Z,2.30
2022-10-07T05:18:18.440Z,2.90
2022-10-07T05:18:55.444Z,2.80
2022-10-07T05:19:30.211Z,3.00
2022-10-07T05:20:05.410Z,3.10
2022-10-07T05:20:43.994Z,2.70
2022-10-07T05:21:19.008Z,2.80
2022-10-07T05:21:55.355Z,2.58
2022-10-07T05:22:31.912Z,2.90
2022-10-07T05:23:06.692Z,2.90
2022-10-07T05:23:43.263Z,2.97
2022-10-07T05:24:21.761Z,2.65
2022-10-07T05:24:55.898Z,2.92
2022-10-07T05:25:30.546Z,3.45
2022-10-07T05:26:08.544Z,2.88
2022-10-07T05:26:43.743Z,2.72
2022-10-07T05:27:18.531Z,2.90
2022-10-07T05:27:54.795Z,2.75
2022-10-07T05:28:28.048Z,2.83
2022-10-07T05:29:04.322Z,2.70
2022-10-07T05:29:45.255Z,2.92
2022-10-07T05:30:20.616Z,3.00
2022-10-07T05:31:03.290Z,2.90
2022-10-07T05:31:40.310Z,2.45
2022-10-07T05:32:14.947Z,2.63
2022-10-07T05:32:48.537Z,2.58
2022-10-07T05:33:23.837Z,2.88
2022-10-07T05:33:58.885Z,2.80
2022-10-07T05:34:34.691Z,2.55
2022-10-07T05:35:10.918Z,4.57
2022-10-07T05:35:48.598Z,3.10
2022-10-07T05:36:24.059Z,3.00
2022-10-07T05:37:00.141Z,3.10
2022-10-07T05:37:35.829Z,2.92
2022-10-07T05:38:10.775Z,2.90
2022-10-07T05:38:45.559Z,2.83
2022-10-07T05:39:20.709Z,3.60
2022-10-07T05:40:17.717Z,2.80
2022-10-07T05:40:58.887Z,2.38
2022-10-07T05:41:38.396Z,2.88
2022-10-07T05:42:20.763Z,2.35
2022-10-07T05:43:01.865Z,2.50
2022-10-07T05:43:37.436Z,2.80
2022-10-07T05:44:16.018Z,2.42
2022-10-07T05:44:50.298Z,3.35
2022-10-07T05:45:26.708Z,2.70
2022-10-07T05:46:02.661Z,2.63
2022-10-07T05:46:40.895Z,3.10
2022-10-07T05:47:16.495Z,2.70
2022-10-07T05:47:51.865Z,2.85
2022-10-07T05:48:26.442Z,2.80
2022-10-07T05:49:00.877Z,2.75
2022-10-07T05:49:42.186Z,2.70
2022-10-07T05:50:19.646Z,2.90
2022-10-07T05:50:54.270Z,2.70
2022-10-07T05:51:30.103Z,3.10
2022-10-07T05:52:08.224Z,2.95
2022-10-07T05:52:45.960Z,2.85
2022-10-07T05:53:21.317Z,2.05
2022-10-07T05:53:56.579Z,3.13
2022-10-07T05:54:36.055Z,2.75
2022-10-07T05:55:12.396Z,4.93
2022-10-07T05:55:46.976Z,4.78
2022-10-07T05:56:22.249Z,2.58
2022-10-07T05:56:59.139Z,2.28
2022-10-07T05:57:32.893Z,2.63
2022-10-07T05:58:08.261Z,2.75
2022-10-07T05:58:41.333Z,2.30
2022-10-07T05:59:17.700Z,2.70
2022-10-07T05:59:53.438Z,2.75
2022-10-07T06:00:32.000Z,2.60
2022-10-07T06:01:13.792Z,2.60
2022-10-07T06:01:51.066Z,2.50
2022-10-07T06:02:29.979Z,2.25
2022-10-07T06:03:06.337Z,2.35
2022-10-07T06:03:41.139Z,2.13
2022-10-07T06:04:14.867Z,2.35
2022-10-07T06:04:54.977Z,2.70
2022-10-07T06:05:32.961Z,2.45
2022-10-07T06:06:09.607Z,2.83
2022-10-07T06:06:44.590Z,2.15
2022-10-07T06:07:21.972Z,2.42
2022-10-07T06:07:59.278Z,2.67
2022-10-07T06:08:32.864Z,2.30
2022-10-07T06:09:25.830Z,2.20
2022-10-07T06:10:19.268Z,2.40
2022-10-07T06:11:12.250Z,2.38
2022-10-07T06:12:09.657Z,2.55
2022-10-07T06:13:03.985Z,2.22
2022-10-07T06:13:42.700Z,1.83
2022-10-07T06:14:16.975Z,1.92
2022-10-07T06:14:52.565Z,2.30
2022-10-07T06:15:27.179Z,2.28
2022-10-07T06:16:02.430Z,2.00
2022-10-07T06:16:37.200Z,2.47
2022-10-07T06:17:14.597Z,2.78
2022-10-07T06:17:49.690Z,2.17
2022-10-07T06:18:28.225Z,1.90
2022-10-07T06:19:02.704Z,1.63
2022-10-07T06:19:38.683Z,1.90
2022-10-07T06:20:15.859Z,2.30
2022-10-07T06:20:55.594Z,1.88
2022-10-07T06:21:32.422Z,1.92
2022-10-07T06:22:11.812Z,2.20
2022-10-07T06:22:46.629Z,2.20
2022-10-07T06:23:23.977Z,1.88
2022-10-07T06:23:59.062Z,1.98
2022-10-07T06:24:38.885Z,1.80
2022-10-07T06:25:12.545Z,1.90
2022-10-07T06:25:52.996Z,1.75
2022-10-07T06:26:28.486Z,2.30
2022-10-07T06:27:03.217Z,2.13
2022-10-07T06:27:38.026Z,2.00
2022-10-07T06:28:15.054Z,2.15
2022-10-07T06:28:48.435Z,2.67
2022-10-07T06:29:24.025Z,2.47
2022-10-07T06:29:59.867Z,2.83
2022-10-07T06:30:35.683Z,2.55
2022-10-07T06:31:12.244Z,2.17
2022-10-07T06:31:46.960Z,2.50
2022-10-07T06:32:22.764Z,2.08
2022-10-07T06:32:57.955Z,2.10
2022-10-07T06:33:32.418Z,2.28
2022-10-07T06:34:07.238Z,2.17
2022-10-07T06:34:42.019Z,2.42
2022-10-07T06:35:17.612Z,2.28
2022-10-07T06:35:51.612Z,2.03
2022-10-07T06:36:26.772Z,2.33
2022-10-07T06:37:03.279Z,2.00
2022-10-07T06:37:40.065Z,2.97
2022-10-07T06:38:17.800Z,2.65
2022-10-07T06:38:54.276Z,2.30
2022-10-07T06:39:34.763Z,2.17
2022-10-07T06:40:12.760Z,2.30
2022-10-07T06:40:59.679Z,2.17
2022-10-07T06:41:35.884Z,2.28
2022-10-07T06:42:32.634Z,2.30
2022-10-07T06:43:27.094Z,2.15
2022-10-07T06:44:11.432Z,2.10
2022-10-07T06:44:45.639Z,2.13
2022-10-07T06:45:24.891Z,2.05
2022-10-07T06:46:02.777Z,1.98
2022-10-07T06:46:39.326Z,1.90
2022-10-07T06:47:14.393Z,1.95
2022-10-07T06:47:51.010Z,2.00
2022-10-07T06:48:25.732Z,1.80
2022-10-07T06:48:59.401Z,1.95
2022-10-07T06:49:34.988Z,2.50
2022-10-07T06:50:10.501Z,2.13
2022-10-07T06:50:51.582Z,1.92
2022-10-07T06:51:27.734Z,2.42
2022-10-07T06:52:02.918Z,1.63
2022-10-07T06:52:41.241Z,1.83
2022-10-07T06:53:19.352Z,1.90
2022-10-07T06:53:58.568Z,1.70
2022-10-07T06:54:35.291Z,1.88
2022-10-07T06:55:09.961Z,1.80
2022-10-07T06:55:45.752Z,2.05
2022-10-07T06:56:21.558Z,2.10
2022-10-07T06:56:56.538Z,1.77
2022-10-07T06:57:45.201Z,1.70
2022-10-07T06:58:21.525Z,1.90
2022-10-07T06:58:55.734Z,1.80
2022-10-07T06:59:40.598Z,2.15
2022-10-07T07:00:23.507Z,1.63
2022-10-07T07:01:00.236Z,2.08
2022-10-07T07:01:34.809Z,1.90
2022-10-07T07:02:09.769Z,1.70
2022-10-07T07:02:46.596Z,1.80
2022-10-07T07:03:23.283Z,1.90
2022-10-07T07:03:57.862Z,1.80
2022-10-07T07:04:32.260Z,1.58
2022-10-07T07:05:09.111Z,1.80
2022-10-07T07:05:45.885Z,1.85
2022-10-07T07:06:24.039Z,1.40
2022-10-07T07:06:58.381Z,1.45
2022-10-07T07:07:33.795Z,1.75
2022-10-07T07:08:08.539Z,2.13
2022-10-07T07:08:45.435Z,1.60
2022-10-07T07:09:22.104Z,1.75
2022-10-07T07:09:58.409Z,1.50
2022-10-07T07:10:41.126Z,1.60
2022-10-07T07:11:36.269Z,1.80
2022-10-07T07:12:18.245Z,1.83
2022-10-07T07:12:54.701Z,1.63
2022-10-07T07:13:29.122Z,1.70
2022-10-07T07:14:04.801Z,1.63
2022-10-07T07:14:37.958Z,1.60
2022-10-07T07:15:19.921Z,2.20
2022-10-07T07:15:59.184Z,1.50
2022-10-07T07:16:36.303Z,1.63
2022-10-07T07:17:11.463Z,1.70
2022-10-07T07:17:45.731Z,2.05
2022-10-07T07:18:18.990Z,1.50
2022-10-07T07:18:56.389Z,1.65
2022-10-07T07:19:30.455Z,1.70
2022-10-07T07:20:06.175Z,1.88
2022-10-07T07:20:42.510Z,1.40
2022-10-07T07:21:17.586Z,1.65
2022-10-07T07:21:51.501Z,1.42
2022-10-07T07:22:29.592Z,1.30
2022-10-07T07:23:04.144Z,1.67
2022-10-07T07:23:47.246Z,1.58
2022-10-07T07:24:21.926Z,1.63
2022-10-07T07:24:55.751Z,1.30
2022-10-07T07:25:30.540Z,2.10
2022-10-07T07:26:06.280Z,1.80
2022-10-07T07:26:40.875Z,1.50
2022-10-07T07:27:17.665Z,1.83
2022-10-07T07:27:57.613Z,1.60
2022-10-07T07:28:32.009Z,1.73
2022-10-07T07:29:09.166Z,1.50
2022-10-07T07:29:49.519Z,1.73
2022-10-07T07:30:25.166Z,1.55
2022-10-07T07:31:00.764Z,1.30
2022-10-07T07:31:35.722Z,2.20
2022-10-07T07:32:11.401Z,1.50
2022-10-07T07:32:48.458Z,1.73
2022-10-07T07:33:21.667Z,1.15
2022-10-07T07:34:00.372Z,1.42
2022-10-07T07:34:37.885Z,1.40
2022-10-07T07:35:13.559Z,1.63
2022-10-07T07:35:47.569Z,1.58
2022-10-07T07:36:23.551Z,1.77
2022-10-07T07:36:59.076Z,1.70
2022-10-07T07:37:41.699Z,1.60
2022-10-07T07:38:17.813Z,1.70
2022-10-07T07:38:54.076Z,1.70
2022-10-07T07:39:30.046Z,1.77
2022-10-07T07:40:24.664Z,1.98
2022-10-07T07:41:05.684Z,1.50
2022-10-07T07:41:42.183Z,1.40
2022-10-07T07:42:18.058Z,1.55
2022-10-07T07:42:52.045Z,1.52
2022-10-07T07:43:27.827Z,1.67
2022-10-07T07:44:04.453Z,1.40
2022-10-07T07:44:40.813Z,1.58
2022-10-07T07:45:18.797Z,1.48
2022-10-07T07:45:56.050Z,1.33
2022-10-07T07:46:33.599Z,1.50
2022-10-07T07:47:09.455Z,1.80
2022-10-07T07:47:45.387Z,1.33
2022-10-07T07:48:19.740Z,1.85
2022-10-07T07:48:55.382Z,1.30
2022-10-07T07:49:32.678Z,1.40
2022-10-07T07:50:09.872Z,1.38
2022-10-07T07:50:45.432Z,1.48
2022-10-07T07:51:19.798Z,1.50
2022-10-07T07:51:54.028Z,1.58
2022-10-07T07:52:33.314Z,1.40
2022-10-07T07:53:10.677Z,1.40
2022-10-07T07:53:47.997Z,1.42
2022-10-07T07:54:22.391Z,1.50
2022-10-07T07:54:59.785Z,1.73
2022-10-07T07:55:34.439Z,1.30
2022-10-07T07:56:09.158Z,1.25
2022-10-07T07:56:44.883Z,1.70
2022-10-07T07:57:18.331Z,1.80
2022-10-07T07:57:52.704Z,1.45
2022-10-07T07:58:27.292Z,1.50
2022-10-07T07:59:02.528Z,1.77
2022-10-07T07:59:40.209Z,1.60
2022-10-07T08:00:30.806Z,1.42
2022-10-07T08:01:14.016Z,1.55
2022-10-07T08:01:49.858Z,1.20
2022-10-07T08:02:24.569Z,1.27
2022-10-07T08:02:59.112Z,1.60
2022-10-07T08:03:33.168Z,1.60
2022-10-07T08:04:07.824Z,2.05
2022-10-07T08:04:43.253Z,1.77
2022-10-07T08:05:23.874Z,1.30
2022-10-07T08:06:02.819Z,1.67
2022-10-07T08:06:38.205Z,3.50
2022-10-07T08:07:13.876Z,2.25
2022-10-07T08:07:50.851Z,1.60
2022-10-07T08:08:28.088Z,2.00
2022-10-07T08:09:03.182Z,2.20
2022-10-07T08:09:39.878Z,1.73
2022-10-07T08:10:15.225Z,1.77
2022-10-07T08:10:51.921Z,1.67
2022-10-07T08:11:28.274Z,1.58
2022-10-07T08:12:03.720Z,1.77
2022-10-07T08:12:40.992Z,1.50
2022-10-07T08:13:14.752Z,1.42
2022-10-07T08:13:49.349Z,1.50
2022-10-07T08:14:25.907Z,1.40
2022-10-07T08:15:01.430Z,1.27